Time;durP1;ratioP1;P1;durP2;ratioP2;P2;SDS_P1;SDS_P2;PMS_P1;PMS_P2;Temp;Humidity;BMP_temperature;BMP_pressure;BME280_temperature;BME280_humidity;BME280_pressure;Samples;Min_cycle;Max_cycle;Signal;HPM_P1;HPM_P2
2021/12/11 00:01:49;;;;;;;3.15;1.85;;;;;;;22.93;38.87;101684.34;1874036;76;22145;-41
2021/12/11 00:04:43;;;;;;;1.95;1.85;;;;;;;22.93;38.86;101680.80;1873900;76;22125;-41
2021/12/11 00:07:34;;;;;;;1.55;1.42;;;;;;;22.91;38.85;101683.72;1874011;76;22129;-41
2021/12/11 00:10:15;;;;;;;1.47;1.37;;;;;;;22.90;38.84;101683.37;1873939;76;22121;-41
2021/12/11 00:12:51;;;;;;;1.50;1.35;;;;;;;22.91;38.81;101685.55;1874038;76;22138;-40
2021/12/11 00:15:45;;;;;;;1.80;1.70;;;;;;;22.90;38.85;101682.53;1874016;76;22585;-40
2021/12/11 00:18:23;;;;;;;1.90;1.72;;;;;;;22.88;38.85;101682.70;1874034;76;22138;-40
2021/12/11 00:21:16;;;;;;;1.67;1.55;;;;;;;22.88;38.82;101689.48;1873894;76;22129;-41
2021/12/11 00:23:53;;;;;;;1.65;1.50;;;;;;;22.88;38.83;101693.55;1873934;76;22598;-40
2021/12/11 00:26:51;;;;;;;2.87;1.85;;;;;;;22.88;38.83;101695.42;1873904;76;22137;-41
2021/12/11 00:29:25;;;;;;;1.40;1.30;;;;;;;22.86;38.83;101691.53;1892712;76;22128;-40
2021/12/11 00:32:02;;;;;;;2.62;2.00;;;;;;;22.84;38.79;101693.61;1873922;76;22146;-40
2021/12/11 00:34:57;;;;;;;1.57;1.47;;;;;;;22.84;38.75;101678.71;1873889;76;22120;-40
2021/12/11 00:37:29;;;;;;;2.95;1.72;;;;;;;22.85;38.74;101682.25;1873919;76;22149;-40
2021/12/11 00:40:25;;;;;;;2.95;1.85;;;;;;;22.83;38.71;101682.46;1873877;76;22598;-40
2021/12/11 00:43:02;;;;;;;2.92;1.77;;;;;;;22.83;38.71;101685.17;1873927;76;22125;-41
2021/12/11 00:45:52;;;;;;;1.62;1.52;;;;;;;22.82;38.69;101687.56;1873936;76;22558;-40
2021/12/11 00:48:26;;;;;;;1.62;1.50;;;;;;;22.81;38.76;101693.16;1873895;76;22170;-40
2021/12/11 00:51:20;;;;;;;2.00;1.60;;;;;;;22.80;38.78;101690.14;1873885;76;22198;-41
2021/12/11 00:53:56;;;;;;;1.65;1.42;;;;;;;22.80;38.76;101693.68;1873927;76;22120;-40
2021/12/11 00:56:47;;;;;;;6.53;1.87;;;;;;;22.80;38.71;101692.33;1892681;76;22127;-40
2021/12/11 00:59:20;;;;;;;3.35;1.60;;;;;;;22.80;38.72;101701.81;1892709;76;22160;-40
2021/12/11 01:02:12;;;;;;;2.98;1.60;;;;;;;22.79;38.71;101702.02;1873897;76;22137;-40
2021/12/11 01:04:44;;;;;;;1.62;1.50;;;;;;;22.79;38.73;101700.66;1873924;76;22125;-40
2021/12/11 01:07:34;;;;;;;3.37;2.20;;;;;;;22.77;38.69;101694.58;1873897;76;22121;-40
2021/12/11 01:10:17;;;;;;;1.50;1.40;;;;;;;22.77;38.66;101696.77;1873932;76;22125;-40
2021/12/11 01:13:10;;;;;;;1.65;1.40;;;;;;;22.77;38.67;101699.48;1873901;76;22582;-40
2021/12/11 01:15:53;;;;;;;1.77;1.52;;;;;;;22.76;38.65;101696.97;1873931;76;22097;-41
2021/12/11 01:18:34;;;;;;;2.25;1.75;;;;;;;22.76;38.62;101692.91;1892726;76;22132;-41
2021/12/11 01:26:40;;;;;;;1.50;1.40;;;;;;;22.85;38.38;101689.86;1873850;76;22156;-41
2021/12/11 01:29:12;;;;;;;1.75;1.45;;;;;;;22.83;38.41;101687.87;1892721;76;22149;-40
2021/12/11 01:31:44;;;;;;;1.55;1.35;;;;;;;22.82;38.37;101692.13;1873925;76;22146;-40
2021/12/11 01:34:16;;;;;;;1.75;1.60;;;;;;;22.80;38.34;101686.07;1892712;76;22553;-41
2021/12/11 01:36:48;;;;;;;1.50;1.40;;;;;;;22.79;38.37;101689.82;1873917;76;22116;-40
2021/12/11 01:39:39;;;;;;;1.67;1.42;;;;;;;22.76;38.38;101691.03;1873883;76;22121;-40
2021/12/11 01:42:19;;;;;;;1.40;1.30;;;;;;;22.76;38.39;101693.74;1873932;76;22566;-41
2021/12/11 01:45:12;;;;;;;2.20;1.72;;;;;;;22.74;38.42;101689.05;1892708;76;22120;-40
2021/12/11 01:48:04;;;;;;;1.57;1.47;;;;;;;22.73;38.41;101690.61;1892662;76;22589;-40
2021/12/11 01:50:40;;;;;;;2.02;1.75;;;;;;;22.72;38.43;101687.03;1874016;76;22174;-41
2021/12/11 01:53:20;;;;;;;3.42;1.42;;;;;;;22.71;38.44;101688.08;1892754;76;20105;-41
2021/12/11 01:56:15;;;;;;;2.47;1.45;;;;;;;22.71;38.35;101697.56;1873903;76;22569;-40
2021/12/11 01:58:59;;;;;;;2.20;1.95;;;;;;;22.68;38.38;101688.48;1858016;76;28295;-41
2021/12/11 02:02:08;;;;;;;2.30;1.82;;;;;;;22.76;38.26;101684.27;1873923;76;22133;-40
2021/12/11 02:04:54;;;;;;;1.98;1.75;;;;;;;22.76;38.16;101688.33;1873917;76;22116;-40
2021/12/11 02:07:48;;;;;;;2.47;1.70;;;;;;;22.75;38.18;101694.78;1892687;76;22143;-41
2021/12/11 02:10:28;;;;;;;2.00;1.70;;;;;;;22.73;38.19;101692.80;1873941;76;22138;-40
2021/12/11 02:13:33;;;;;;;3.15;2.22;;;;;;;22.71;38.21;101695.69;1874038;76;22133;-40
2021/12/11 02:16:21;;;;;;;1.82;1.47;;;;;;;22.68;38.24;101690.67;1873893;76;22170;-40
2021/12/11 02:19:02;;;;;;;1.70;1.40;;;;;;;22.66;38.29;101694.59;1892719;76;22149;-41
2021/12/11 02:22:03;;;;;;;2.00;1.80;;;;;;;22.65;38.26;101697.83;1873888;76;22128;-40
2021/12/11 02:24:45;;;;;;;2.72;1.65;;;;;;;22.64;38.28;101693.97;1873916;76;22623;-41
2021/12/11 02:27:53;;;;;;;1.50;1.40;;;;;;;22.63;38.31;101690.91;1873910;76;22128;-41
2021/12/11 02:30:30;;;;;;;1.67;1.55;;;;;;;22.62;38.29;101693.30;1873905;76;22150;-41
2021/12/11 02:33:29;;;;;;;1.60;1.50;;;;;;;22.60;38.30;101696.73;1857974;76;28287;-40
2021/12/11 02:36:13;;;;;;;1.35;1.25;;;;;;;22.66;38.25;101695.95;1873910;76;22158;-40
2021/12/11 02:39:00;;;;;;;1.57;1.47;;;;;;;22.69;38.13;101702.34;1892711;76;22128;-41
2021/12/11 02:41:52;;;;;;;1.98;1.77;;;;;;;22.66;38.11;101708.14;1858004;76;27833;-40
2021/12/11 02:44:55;;;;;;;1.75;1.65;;;;;;;22.74;38.01;101710.72;1873911;76;22561;-41
2021/12/11 02:47:50;;;;;;;3.37;1.82;;;;;;;22.74;37.93;101708.02;1873929;76;22170;-40
2021/12/11 02:50:50;;;;;;;2.08;1.72;;;;;;;22.70;37.97;101715.69;1892707;76;22570;-40
2021/12/11 02:53:49;;;;;;;2.02;1.62;;;;;;;22.66;37.99;101717.09;1892826;76;22157;-40
2021/12/11 02:56:30;;;;;;;2.10;1.65;;;;;;;22.64;38.00;101719.70;1873925;76;22546;-40
2021/12/11 02:59:07;;;;;;;1.85;1.40;;;;;;;22.61;38.06;101723.62;1873921;76;22129;-41
2021/12/11 03:02:08;;;;;;;1.52;1.42;;;;;;;22.58;38.04;101718.58;1892708;76;22127;-41
2021/12/11 03:04:50;;;;;;;1.90;1.70;;;;;;;22.57;38.08;101710.66;1874047;76;22121;-40
2021/12/11 03:07:38;;;;;;;1.77;1.67;;;;;;;22.55;38.09;101709.50;1876631;76;28298;-41
2021/12/11 03:10:12;;;;;;;2.20;2.00;;;;;;;22.60;38.07;101707.57;1892815;76;22145;-41
2021/12/11 03:13:04;;;;;;;1.40;1.30;;;;;;;22.63;37.95;101711.22;1873881;76;22177;-40
2021/12/11 03:15:36;;;;;;;1.50;1.30;;;;;;;22.61;37.91;101707.37;1873929;76;22116;-41
2021/12/11 03:18:28;;;;;;;2.42;1.77;;;;;;;22.59;37.90;101712.16;1873855;76;22152;-40
2021/12/11 03:21:00;;;;;;;3.12;2.12;;;;;;;22.57;37.93;101712.02;1873925;76;22120;-40
2021/12/11 03:23:52;;;;;;;2.15;1.85;;;;;;;22.54;37.95;101715.13;1873903;76;22129;-41
2021/12/11 03:26:24;;;;;;;1.82;1.62;;;;;;;22.53;38.00;101717.48;1873924;76;22125;-40
2021/12/11 03:29:16;;;;;;;2.65;1.90;;;;;;;22.51;38.03;101712.80;1892802;76;22123;-40
2021/12/11 03:31:48;;;;;;;2.37;1.60;;;;;;;22.50;38.04;101709.77;1873914;76;22577;-40
2021/12/11 03:34:39;;;;;;;1.57;1.47;;;;;;;22.48;38.05;101707.75;1873884;76;22133;-40
2021/12/11 03:37:12;;;;;;;1.77;1.67;;;;;;;22.47;38.03;101706.08;1892701;76;22582;-40
2021/12/11 03:40:05;;;;;;;1.60;1.50;;;;;;;22.46;38.05;101718.78;1892777;76;22148;-40
2021/12/11 03:42:39;;;;;;;1.82;1.40;;;;;;;22.43;37.99;101711.87;1873897;76;22166;-41
2021/12/11 03:45:38;;;;;;;1.90;1.70;;;;;;;22.42;38.02;101709.37;1892761;76;22119;-40
2021/12/11 03:48:17;;;;;;;1.82;1.62;;;;;;;22.40;38.05;101701.45;1874041;76;22149;-41
2021/12/11 03:51:11;;;;;;;2.55;1.47;;;;;;;22.40;38.07;101703.32;1873911;76;22116;-40
2021/12/11 03:53:43;;;;;;;2.52;1.40;;;;;;;22.38;38.08;101701.30;1873918;76;22125;-41
2021/12/11 03:56:35;;;;;;;1.98;1.75;;;;;;;22.37;38.09;101700.47;1873880;76;22593;-41
2021/12/11 03:59:10;;;;;;;2.30;1.90;;;;;;;22.36;38.13;101699.31;1873918;76;22597;-40
2021/12/11 04:01:47;;;;;;;1.87;1.65;;;;;;;22.35;38.18;101701.19;1873933;76;22607;-40
2021/12/11 04:04:27;;;;;;;2.40;1.80;;;;;;;22.35;38.11;101702.54;1873916;76;22129;-41
2021/12/11 04:07:23;;;;;;;2.15;1.90;;;;;;;22.34;38.08;101705.42;1892690;76;22146;-40
2021/12/11 04:09:54;;;;;;;2.00;1.77;;;;;;;22.33;38.08;101702.39;1873919;76;22574;-40
2021/12/11 04:12:48;;;;;;;1.80;1.57;;;;;;;22.32;38.06;101697.50;1873907;76;22152;-40
2021/12/11 04:15:20;;;;;;;1.80;1.70;;;;;;;22.31;38.05;101702.59;1892724;76;22137;-40
2021/12/11 04:18:11;;;;;;;1.70;1.60;;;;;;;22.31;38.07;101701.24;1874017;76;22125;-40
2021/12/11 04:20:44;;;;;;;2.58;1.95;;;;;;;22.30;38.05;101698.22;1892722;76;22128;-41
2021/12/11 04:23:35;;;;;;;1.40;1.30;;;;;;;22.30;38.09;101694.65;1892664;76;22147;-41
2021/12/11 04:26:07;;;;;;;1.60;1.50;;;;;;;22.29;38.11;101695.16;1873928;76;22117;-40
2021/12/11 04:28:39;;;;;;;1.62;1.52;;;;;;;22.28;38.08;101696.72;1892726;76;22141;-41
2021/12/11 04:31:24;;;;;;;2.40;1.90;;;;;;;22.28;38.08;101703.48;1873062;76;22129;-40
2021/12/11 04:33:59;;;;;;;1.90;1.30;;;;;;;22.27;38.07;101699.11;1873929;76;22125;-40
2021/12/11 04:36:36;;;;;;;1.72;1.55;;;;;;;22.26;38.08;101703.69;1873939;76;22124;-40
2021/12/11 04:39:34;;;;;;;1.80;1.57;;;;;;;22.25;38.07;101701.98;1892680;76;22561;-40
2021/12/11 04:42:12;;;;;;;1.52;1.42;;;;;;;22.26;38.10;101704.21;1892718;76;22553;-40
2021/12/11 04:44:56;;;;;;;2.10;1.65;;;;;;;22.25;38.07;101706.05;1873878;76;22125;-40
2021/12/11 04:50:34;;;;;;;2.12;1.75;;;;;;;22.24;38.07;101715.72;1892790;76;22123;-40
2021/12/11 04:53:00;;;;;;;1.42;1.32;;;;;;;22.22;38.03;101711.87;1873926;76;22158;-41
2021/12/11 04:56:15;;;;;;;2.00;1.55;;;;;;;22.22;38.08;101713.22;1873914;76;22148;-40
2021/12/11 04:58:50;;;;;;;1.60;1.50;;;;;;;22.20;38.10;101712.55;1873916;76;22588;-41
2021/12/11 05:01:33;;;;;;;1.77;1.67;;;;;;;22.19;38.09;101722.55;1858144;76;27816;-40
2021/12/11 05:07:01;;;;;;;2.12;1.57;;;;;;;22.30;37.90;101728.00;1892820;76;22145;-40
2021/12/11 05:09:56;;;;;;;2.20;1.55;;;;;;;22.29;37.86;101726.81;1873895;76;22598;-40
2021/12/11 05:12:47;;;;;;;1.30;1.20;;;;;;;22.27;37.91;101728.89;1892703;76;22197;-41
2021/12/11 05:15:40;;;;;;;1.27;1.17;;;;;;;22.25;37.92;101739.88;1892704;76;22120;-41
2021/12/11 05:18:16;;;;;;;1.47;1.37;;;;;;;22.24;37.94;101737.38;1874046;76;22124;-40
2021/12/11 05:21:11;;;;;;;1.80;1.70;;;;;;;22.22;37.93;101736.23;1892711;76;22605;-40
2021/12/11 05:23:44;;;;;;;2.83;1.70;;;;;;;22.20;37.93;101736.91;1858016;76;27861;-40
2021/12/11 05:26:36;;;;;;;1.70;1.57;;;;;;;22.26;37.84;101738.05;1892673;76;22149;-40
2021/12/11 05:29:08;;;;;;;1.27;1.17;;;;;;;22.28;37.68;101733.27;1873938;76;22109;-40
2021/12/11 05:31:40;;;;;;;3.30;1.62;;;;;;;22.26;37.70;101733.47;1873903;76;22113;-40
2021/12/11 05:34:31;;;;;;;2.70;1.27;;;;;;;22.24;37.71;101738.73;1873823;76;22153;-40
2021/12/11 05:37:04;;;;;;;1.52;1.42;;;;;;;22.23;37.69;101746.02;1873900;76;22610;-41
2021/12/11 05:39:54;;;;;;;1.92;1.52;;;;;;;22.21;37.73;101742.68;1874007;76;22582;-41
2021/12/11 05:42:26;;;;;;;2.00;1.72;;;;;;;22.18;37.79;101746.59;1873938;76;22170;-40
2021/12/11 05:45:17;;;;;;;1.90;1.70;;;;;;;22.17;37.81;101745.44;1873908;76;22561;-41
2021/12/11 05:47:48;;;;;;;2.10;1.67;;;;;;;22.16;37.83;101741.03;1873919;76;22157;-40
2021/12/11 05:50:26;;;;;;;2.15;1.45;;;;;;;22.14;37.83;101738.52;1892728;76;22574;-41
2021/12/11 05:53:17;;;;;;;2.85;1.80;;;;;;;22.14;37.77;101745.80;1857983;76;28313;-40
2021/12/11 05:55:52;;;;;;;1.67;1.57;;;;;;;22.18;37.76;101738.47;1873930;76;22178;-40
2021/12/11 05:58:36;;;;;;;2.10;1.45;;;;;;;22.23;37.64;101734.36;1873927;76;22562;-40
2021/12/11 06:01:21;;;;;;;4.80;1.57;;;;;;;22.22;37.62;101727.27;1873891;76;22121;-40
2021/12/11 06:03:53;;;;;;;1.60;1.37;;;;;;;22.21;37.64;101731.85;1873955;76;20236;-41
2021/12/11 06:06:44;;;;;;;3.92;1.60;;;;;;;22.19;37.63;101736.59;1873874;76;22157;-40
2021/12/11 06:09:18;;;;;;;1.98;1.47;;;;;;;22.17;37.63;101736.80;1892812;76;22088;-40
2021/12/11 06:12:11;;;;;;;5.03;1.70;;;;;;;22.16;37.65;101729.72;1873910;76;22124;-40
2021/12/11 06:14:44;;;;;;;2.35;1.82;;;;;;;22.15;37.60;101732.59;1873927;76;22575;-40
2021/12/11 06:17:35;;;;;;;3.50;1.25;;;;;;;22.14;37.59;101733.62;1873890;76;22128;-41
2021/12/11 06:20:09;;;;;;;3.42;1.75;;;;;;;22.14;37.60;101736.33;1892844;76;22145;-40
2021/12/11 06:23:00;;;;;;;3.58;2.17;;;;;;;22.13;37.62;101734.66;1873906;76;22137;-40
2021/12/11 06:25:34;;;;;;;6.58;2.25;;;;;;;22.14;37.63;101732.27;1873942;76;22120;-40
2021/12/11 06:28:26;;;;;;;4.17;2.75;;;;;;;22.14;37.63;101741.23;1873883;76;22140;-41
2021/12/11 06:30:58;;;;;;;2.80;1.90;;;;;;;22.15;37.66;101738.00;1873918;76;22120;-40
2021/12/11 06:33:51;;;;;;;3.60;2.27;;;;;;;22.17;37.66;101740.02;1892684;76;22564;-40
2021/12/11 06:36:23;;;;;;;4.50;2.20;;;;;;;22.16;37.59;101730.20;1892709;76;22127;-40
2021/12/11 06:38:59;;;;;;;4.05;2.65;;;;;;;22.17;37.61;101734.09;1892717;76;22127;-40
2021/12/11 06:41:35;;;;;;;6.35;2.87;;;;;;;22.19;37.56;101738.78;1858011;76;27842;-40
2021/12/11 06:44:08;;;;;;;3.33;2.50;;;;;;;22.28;37.46;101734.63;1876646;76;28235;-41
2021/12/11 06:47:01;;;;;;;4.53;2.90;;;;;;;22.42;37.19;101728.31;1873901;76;22162;-40
2021/12/11 06:49:34;;;;;;;9.28;3.00;;;;;;;22.46;37.08;101728.27;1873935;76;22578;-41
2021/12/11 06:52:10;;;;;;;4.87;2.58;;;;;;;22.47;37.02;101732.64;1874044;76;22173;-41
2021/12/11 06:55:01;;;;;;;6.53;3.10;;;;;;;22.47;36.96;101732.64;1873878;76;22174;-40
2021/12/11 06:57:33;;;;;;;5.60;2.95;;;;;;;22.47;36.96;101731.80;1873939;76;22121;-40
2021/12/11 07:00:08;;;;;;;6.42;3.65;;;;;;;22.47;36.95;101735.34;1874030;76;22117;-40
2021/12/11 07:02:58;;;;;;;7.55;4.33;;;;;;;22.48;36.94;101741.59;1873855;76;22145;-40
2021/12/11 07:05:30;;;;;;;8.70;4.00;;;;;;;22.48;36.94;101746.50;1874028;76;22166;-40
2021/12/11 07:08:23;;;;;;;10.58;4.67;;;;;;;22.51;36.95;101743.94;1873912;76;22622;-41
2021/12/11 07:10:55;;;;;;;7.65;4.30;;;;;;;22.54;36.96;101734.08;1873923;76;22128;-40
2021/12/11 07:13:46;;;;;;;11.55;4.55;;;;;;;22.59;36.88;101729.76;1892685;76;22120;-41
2021/12/11 07:16:18;;;;;;;10.15;5.30;;;;;;;22.64;36.83;101725.11;1892714;76;22128;-40
2021/12/11 07:19:09;;;;;;;12.45;5.47;;;;;;;22.71;36.71;101727.36;1892686;76;22136;-41
2021/12/11 07:21:41;;;;;;;11.08;5.53;;;;;;;22.75;36.66;101728.65;1873923;76;22566;-40
2021/12/11 07:24:37;;;;;;;11.95;5.90;;;;;;;22.81;36.60;101733.28;1873892;76;22141;-41
2021/12/11 07:27:09;;;;;;;13.08;5.45;;;;;;;22.89;36.54;101739.13;1892689;76;22169;-40
2021/12/11 07:29:41;;;;;;;9.65;4.97;;;;;;;22.94;36.45;101738.85;1892700;76;22156;-40
2021/12/11 07:32:13;;;;;;;9.05;5.20;;;;;;;23.01;36.37;101731.28;1873923;76;22177;-41
2021/12/11 07:35:05;;;;;;;13.90;5.87;;;;;;;23.08;36.26;101734.91;1873893;76;22577;-41
2021/12/11 07:37:37;;;;;;;13.48;5.75;;;;;;;23.14;36.19;101741.72;1874036;76;22121;-40
2021/12/11 07:40:10;;;;;;;10.48;5.05;;;;;;;23.19;36.12;101739.25;1873925;76;22117;-41
2021/12/11 07:42:42;;;;;;;9.60;5.17;;;;;;;23.25;36.04;101737.66;1873937;76;22577;-40
2021/12/11 07:45:33;;;;;;;14.00;5.75;;;;;;;23.33;35.90;101733.93;1892672;76;22568;-40
2021/12/11 07:48:06;;;;;;;9.98;5.35;;;;;;;23.38;35.85;101740.46;1873932;76;22120;-40
2021/12/11 07:50:39;;;;;;;9.95;5.28;;;;;;;23.43;35.76;101745.26;1873920;76;22590;-40
2021/12/11 07:53:12;;;;;;;12.53;6.47;;;;;;;23.48;35.66;101742.82;1892719;76;22115;-40
2021/12/11 07:55:44;;;;;;;8.95;5.42;;;;;;;23.53;35.62;101748.48;1873925;76;22125;-40
2021/12/11 07:58:35;;;;;;;10.80;5.55;;;;;;;23.58;35.48;101740.58;1874003;76;22137;-41
2021/12/11 08:01:08;;;;;;;11.68;5.72;;;;;;;23.62;35.42;101736.92;1873925;76;22124;-41
2021/12/11 08:04:00;;;;;;;9.58;5.00;;;;;;;23.67;35.36;101746.72;1874009;76;22120;-41
2021/12/11 08:06:33;;;;;;;9.68;5.53;;;;;;;23.70;35.30;101747.66;1892722;76;22141;-40
2021/12/11 08:09:08;;;;;;;9.68;5.17;;;;;;;23.75;35.18;101752.48;1873923;76;22146;-41
2021/12/11 08:11:59;;;;;;;9.35;5.42;;;;;;;23.79;35.07;101750.52;1873890;76;22117;-41
2021/12/11 08:14:30;;;;;;;12.35;5.87;;;;;;;23.81;35.06;101753.89;1874018;76;22153;-40
2021/12/11 08:17:21;;;;;;;12.33;6.00;;;;;;;23.85;34.98;101759.21;1892662;76;22169;-40
2021/12/11 08:19:53;;;;;;;12.30;6.12;;;;;;;23.87;34.90;101754.44;1873932;76;22117;-40
2021/12/11 08:22:44;;;;;;;10.43;5.72;;;;;;;23.90;34.85;101747.75;1873883;76;22593;-41
2021/12/11 08:25:15;;;;;;;14.28;6.47;;;;;;;23.92;34.83;101749.23;1892837;76;22128;-41
2021/12/11 08:28:09;;;;;;;13.43;6.10;;;;;;;23.96;34.77;101746.97;1873902;76;22177;-41
2021/12/11 08:30:44;;;;;;;13.20;6.65;;;;;;;23.97;34.70;101745.39;1873934;76;22598;-41
2021/12/11 08:33:35;;;;;;;12.30;6.47;;;;;;;24.01;34.61;101755.86;1892677;76;22119;-41
2021/12/11 08:36:08;;;;;;;15.00;6.47;;;;;;;24.00;34.61;101763.17;1873916;76;22574;-40
2021/12/11 08:38:59;;;;;;;13.70;7.20;;;;;;;24.02;34.56;101755.65;1892713;76;22120;-40
2021/12/11 08:41:32;;;;;;;14.23;7.53;;;;;;;24.05;34.51;101756.61;1873931;76;22124;-40
2021/12/11 08:44:10;;;;;;;13.38;7.40;;;;;;;24.06;34.49;101762.88;1873933;76;22553;-41
2021/12/11 08:46:43;;;;;;;12.45;7.28;;;;;;;24.07;34.46;101757.23;1873933;76;22146;-41
2021/12/11 08:49:36;;;;;;;14.80;8.00;;;;;;;24.09;34.47;101761.96;1892789;76;22155;-41
2021/12/11 08:52:19;;;;;;;14.43;7.72;;;;;;;24.10;34.42;101764.15;1892722;76;22120;-41
2021/12/11 08:55:15;;;;;;;12.90;7.83;;;;;;;24.11;34.40;101769.37;1892676;76;22177;-40
2021/12/11 08:57:47;;;;;;;12.78;7.85;;;;;;;24.13;34.38;101770.52;1873905;76;22145;-40
2021/12/11 09:00:43;;;;;;;15.88;8.98;;;;;;;24.14;34.38;101772.22;1892702;76;22128;-41
2021/12/11 09:03:23;;;;;;;15.53;8.45;;;;;;;24.15;34.37;101758.95;1873929;76;22125;-41
2021/12/11 09:06:27;;;;;;;15.83;8.55;;;;;;;24.16;34.31;101754.66;1873880;76;22120;-40
2021/12/11 09:09:22;;;;;;;15.28;9.28;;;;;;;24.17;34.31;101752.26;1873916;76;22149;-40
2021/12/11 09:12:28;;;;;;;15.78;8.68;;;;;;;24.20;34.24;101746.95;1892704;76;22136;-41
2021/12/11 09:15:17;;;;;;;17.27;10.00;;;;;;;24.22;34.17;101740.78;1858009;76;27862;-40
2021/12/11 09:18:17;;;;;;;16.45;9.73;;;;;;;24.30;34.09;101738.42;1892814;76;22160;-41
2021/12/11 09:21:00;;;;;;;14.15;8.60;;;;;;;24.31;34.01;101743.63;1873874;76;22166;-41
2021/12/11 09:24:04;;;;;;;16.07;9.60;;;;;;;24.34;34.01;101738.33;1873904;76;22136;-41
2021/12/11 09:26:42;;;;;;;16.60;8.88;;;;;;;24.34;33.98;101739.69;1873939;76;22120;-40
2021/12/11 09:29:56;;;;;;;15.93;9.20;;;;;;;24.36;33.96;101731.66;1857975;76;27900;-40
2021/12/11 09:32:33;;;;;;;15.40;9.13;;;;;;;24.42;33.84;101714.57;1873922;76;22583;-40
2021/12/11 09:35:11;;;;;;;15.15;8.38;;;;;;;24.45;33.78;101719.57;1873921;76;22157;-40
2021/12/11 09:38:10;;;;;;;15.48;8.73;;;;;;;24.46;33.76;101719.05;1873898;76;22128;-40
2021/12/11 09:40:56;;;;;;;15.40;8.60;;;;;;;24.47;33.75;101710.71;1892716;76;22127;-40
2021/12/11 09:43:39;;;;;;;16.40;9.15;;;;;;;24.47;33.73;101705.28;1892711;76;22149;-41
2021/12/11 09:46:13;;;;;;;14.30;8.75;;;;;;;24.49;33.70;101702.34;1874038;76;22174;-40
2021/12/11 09:48:47;;;;;;;15.38;8.80;;;;;;;24.50;33.67;101684.16;1873930;76;22554;-40
2021/12/11 09:51:42;;;;;;;17.00;8.90;;;;;;;24.53;33.67;101679.69;1873892;76;22129;-40
2021/12/11 09:54:21;;;;;;;15.95;9.13;;;;;;;24.53;33.65;101681.88;1892691;76;22149;-40
2021/12/11 09:57:14;;;;;;;15.65;8.30;;;;;;;24.56;33.59;101677.39;1873912;76;22154;-40
2021/12/11 09:59:47;;;;;;;17.02;9.33;;;;;;;24.56;33.56;101685.55;1873931;76;22142;-40
2021/12/11 10:02:40;;;;;;;16.10;8.93;;;;;;;24.60;33.55;101696.81;1873852;76;22590;-40
2021/12/11 10:05:35;;;;;;;18.67;10.13;;;;;;;24.62;33.54;101702.37;1873914;76;22170;-40
2021/12/11 10:08:38;;;;;;;18.60;10.03;;;;;;;24.64;33.47;101707.06;1873926;76;22120;-40
2021/12/11 10:11:30;;;;;;;15.60;9.53;;;;;;;24.67;33.45;101716.69;1873912;76;22128;-41
2021/12/11 10:14:26;;;;;;;16.73;9.78;;;;;;;24.69;33.43;101716.78;1873917;76;22120;-40
2021/12/11 10:17:00;;;;;;;16.52;9.70;;;;;;;24.72;33.44;101716.38;1874032;76;22557;-40
2021/12/11 10:19:53;;;;;;;15.88;10.03;;;;;;;24.72;33.43;101706.86;1873878;76;22125;-40
2021/12/11 10:22:34;;;;;;;17.42;9.78;;;;;;;24.73;33.42;101712.61;1873922;76;22550;-40
2021/12/11 10:25:30;;;;;;;19.65;11.03;;;;;;;24.76;33.41;101708.66;1873872;76;22154;-40
2021/12/11 10:28:10;;;;;;;16.57;10.05;;;;;;;24.78;33.39;101715.23;1873083;76;22142;-40
2021/12/11 10:30:50;;;;;;;16.40;9.58;;;;;;;24.80;33.40;101715.88;1873938;76;22121;-40
2021/12/11 10:33:24;;;;;;;16.50;9.70;;;;;;;24.81;33.37;101712.94;1892707;76;22626;-40
2021/12/11 10:35:58;;;;;;;17.65;10.72;;;;;;;24.83;33.33;101710.83;1892701;76;22148;-40
2021/12/11 10:38:30;;;;;;;16.87;9.73;;;;;;;24.86;33.29;101716.39;1873914;76;22121;-41
2021/12/11 10:41:21;;;;;;;18.48;10.35;;;;;;;24.86;33.24;101714.50;1892710;76;22187;-40
2021/12/11 10:44:03;;;;;;;16.97;10.15;;;;;;;24.88;33.23;101712.92;1873926;76;22132;-40
2021/12/11 10:47:02;;;;;;;17.07;10.48;;;;;;;24.90;33.20;101714.93;1873905;76;22581;-40
2021/12/11 10:49:35;;;;;;;16.37;9.83;;;;;;;24.91;33.22;101711.16;1874016;76;22145;-40
2021/12/11 10:52:29;;;;;;;16.97;10.20;;;;;;;24.93;33.18;101713.13;1873873;76;22132;-41
2021/12/11 10:55:04;;;;;;;15.55;9.28;;;;;;;24.93;33.19;101704.45;1873932;76;22565;-40
2021/12/11 10:57:57;;;;;;;17.40;10.08;;;;;;;24.94;33.17;101703.42;1873890;76;22124;-40
2021/12/11 11:00:40;;;;;;;15.25;9.23;;;;;;;24.95;33.18;101706.98;1873929;76;22133;-40
2021/12/11 11:03:14;;;;;;;16.10;9.58;;;;;;;24.96;33.13;101695.88;1873929;76;22569;-40
2021/12/11 11:05:46;;;;;;;16.17;10.28;;;;;;;24.96;33.13;101694.53;1874044;76;22575;-41
2021/12/11 11:08:37;;;;;;;17.35;9.90;;;;;;;24.98;33.11;101695.66;1873896;76;22146;-40
2021/12/11 11:11:13;;;;;;;16.85;10.38;;;;;;;24.99;33.13;101698.20;1873911;76;22594;-40
2021/12/11 11:14:05;;;;;;;15.60;9.95;;;;;;;25.01;33.04;101698.50;1892662;76;22173;-40
2021/12/11 11:16:42;;;;;;;16.82;10.20;;;;;;;25.01;33.04;101691.70;1873937;76;22575;-40
2021/12/11 11:19:34;;;;;;;15.80;9.78;;;;;;;25.03;33.00;101696.39;1892806;76;22119;-40
2021/12/11 11:22:12;;;;;;;16.70;10.20;;;;;;;25.03;32.97;101695.91;1873918;76;22587;-40
2021/12/11 11:25:15;;;;;;;18.32;10.45;;;;;;;25.04;32.94;101683.14;1892687;76;22141;-41
2021/12/11 11:27:52;;;;;;;17.52;10.65;;;;;;;25.05;32.92;101673.93;1873918;76;22562;-40
2021/12/11 11:30:48;;;;;;;17.87;10.68;;;;;;;25.07;32.86;101677.26;1873908;76;22128;-40
2021/12/11 11:33:20;;;;;;;17.32;10.78;;;;;;;25.08;32.89;101685.26;1873923;76;22152;-40
2021/12/11 11:35:53;;;;;;;17.20;11.22;;;;;;;25.08;32.90;101681.67;1873928;76;22565;-40
2021/12/11 11:38:29;;;;;;;17.48;11.20;;;;;;;25.10;32.89;101679.59;1873908;76;22117;-40
2021/12/11 11:41:08;;;;;;;19.57;11.95;;;;;;;25.10;32.87;101683.15;1892731;76;20361;-40
2021/12/11 11:43:59;;;;;;;19.82;11.25;;;;;;;25.12;32.74;101676.12;1873916;76;22133;-41
2021/12/11 11:46:53;;;;;;;18.73;11.53;;;;;;;25.13;32.74;101677.30;1873893;76;22154;-40
2021/12/11 11:49:25;;;;;;;18.20;11.12;;;;;;;25.15;32.75;101683.34;1892698;76;22156;-40
2021/12/11 11:52:05;;;;;;;17.77;11.08;;;;;;;25.16;32.77;101687.73;1873928;76;22136;-40
2021/12/11 11:54:39;;;;;;;18.32;11.50;;;;;;;25.18;32.80;101684.83;1892713;76;22154;-40
2021/12/11 11:57:35;;;;;;;18.90;11.03;;;;;;;25.21;32.74;101692.54;1873894;76;22121;-40
2021/12/11 12:00:21;;;;;;;17.05;10.72;;;;;;;25.23;32.75;101691.30;1873917;76;22117;-40
2021/12/11 12:03:13;;;;;;;17.57;10.10;;;;;;;25.24;32.73;101685.33;1873914;76;22116;-40
2021/12/11 12:05:47;;;;;;;18.98;10.58;;;;;;;25.26;32.73;101690.02;1873930;76;22142;-40
2021/12/11 12:08:20;;;;;;;15.60;10.13;;;;;;;25.28;32.73;101700.70;1892724;76;22128;-40
2021/12/11 12:11:11;;;;;;;17.17;10.98;;;;;;;25.30;32.73;101710.30;1874001;76;22562;-40
2021/12/11 12:13:43;;;;;;;19.60;10.65;;;;;;;25.32;32.69;101706.87;1892716;76;22561;-40
2021/12/11 12:16:33;;;;;;;17.12;9.75;;;;;;;25.33;32.69;101712.61;1873893;76;22129;-40
2021/12/11 12:19:05;;;;;;;16.97;10.45;;;;;;;25.34;32.69;101706.64;1873925;76;22150;-40
2021/12/11 12:21:59;;;;;;;16.55;9.40;;;;;;;25.35;32.64;101697.43;1892692;76;22127;-40
2021/12/11 12:24:32;;;;;;;16.87;10.15;;;;;;;25.37;32.62;101700.80;1892717;76;22136;-40
2021/12/11 12:27:26;;;;;;;15.43;8.95;;;;;;;25.38;32.54;101710.09;1892701;76;22572;-40
2021/12/11 12:29:59;;;;;;;15.88;9.28;;;;;;;25.39;32.54;101715.00;1873935;76;22149;-40
2021/12/11 12:32:35;;;;;;;17.52;9.95;;;;;;;25.39;32.56;101726.72;1892703;76;22136;-40
2021/12/11 12:35:27;;;;;;;16.32;9.80;;;;;;;25.39;32.54;101730.80;1892693;76;22568;-40
2021/12/11 12:37:59;;;;;;;16.07;9.73;;;;;;;25.41;32.54;101742.84;1873932;76;22136;-40
2021/12/11 12:40:39;;;;;;;16.65;9.85;;;;;;;25.41;32.54;101738.77;1892719;76;22556;-40
2021/12/11 12:46:24;;;;;;;15.50;9.45;;;;;;;25.42;32.54;101731.75;1874050;76;22160;-40
2021/12/11 12:48:56;;;;;;;16.82;10.15;;;;;;;25.43;32.53;101739.38;1873918;76;22222;-40
2021/12/11 12:51:29;;;;;;;14.38;8.73;;;;;;;25.43;32.54;101735.30;1892705;76;22144;-40